sensor_id;sensor_type;location;lat;lon;timestamp;temperature;humidity
19868;DHT22;10096;51.112;6.776;2022-12-17T00:02:55;0.60;99.90
19868;DHT22;10096;51.112;6.776;2022-12-17T00:05:41;0.80;1.00
19868;DHT22;10096;51.112;6.776;2022-12-17T00:08:25;0.60;1.00
19868;DHT22;10096;51.112;6.776;2022-12-17T00:11:09;0.60;99.90
19868;DHT22;10096;51.112;6.776;2022-12-17T00:13:54;0.60;99.90
19868;DHT22;10096;51.112;6.776;2022-12-17T00:16:38;0.50;99.90
19868;DHT22;10096;51.112;6.776;2022-12-17T00:19:22;0.40;99.90
19868;DHT22;10096;51.112;6.776;2022-12-17T00:22:08;0.40;1.00
19868;DHT22;10096;51.112;6.776;2022-12-17T00:24:52;0.60;1.00
19868;DHT22;10096;51.112;6.776;2022-12-17T00:27:37;0.60;1.00
19868;DHT22;10096;51.112;6.776;2022-12-17T00:30:21;0.50;99.90
19868;DHT22;10096;51.112;6.776;2022-12-17T00:33:06;0.70;1.00
19868;DHT22;10096;51.112;6.776;2022-12-17T00:35:51;0.70;99.90
19868;DHT22;10096;51.112;6.776;2022-12-17T00:38:36;0.80;1.00
19868;DHT22;10096;51.112;6.776;2022-12-17T00:41:21;0.90;99.90
19868;DHT22;10096;51.112;6.776;2022-12-17T00:44:05;0.80;99.90
19868;DHT22;10096;51.112;6.776;2022-12-17T00:46:49;0.90;99.90
19868;DHT22;10096;51.112;6.776;2022-12-17T00:49:33;0.80;99.90
19868;DHT22;10096;51.112;6.776;2022-12-17T00:52:21;0.90;99.90
19868;DHT22;10096;51.112;6.776;2022-12-17T00:55:07;0.90;99.90
19868;DHT22;10096;51.112;6.776;2022-12-17T00:57:53;0.80;99.90
19868;DHT22;10096;51.112;6.776;2022-12-17T01:00:37;0.70;99.90
19868;DHT22;10096;51.112;6.776;2022-12-17T01:03:18;0.60;99.90
19868;DHT22;10096;51.112;6.776;2022-12-17T01:06:03;0.70;99.90
19868;DHT22;10096;51.112;6.776;2022-12-17T01:08:47;0.70;99.90
19868;DHT22;10096;51.112;6.776;2022-12-17T01:11:33;0.70;99.90
19868;DHT22;10096;51.112;6.776;2022-12-17T01:14:32;0.80;99.90
19868;DHT22;10096;51.112;6.776;2022-12-17T01:17:16;0.80;99.90
19868;DHT22;10096;51.112;6.776;2022-12-17T01:20:00;1.00;99.90
19868;DHT22;10096;51.112;6.776;2022-12-17T01:22:45;0.70;99.90
19868;DHT22;10096;51.112;6.776;2022-12-17T01:25:29;0.60;99.90
19868;DHT22;10096;51.112;6.776;2022-12-17T01:28:20;0.50;99.90
19868;DHT22;10096;51.112;6.776;2022-12-17T01:31:04;0.60;99.90
19868;DHT22;10096;51.112;6.776;2022-12-17T01:33:49;0.70;1.00
19868;DHT22;10096;51.112;6.776;2022-12-17T01:36:33;0.90;99.90
19868;DHT22;10096;51.112;6.776;2022-12-17T01:39:17;0.80;99.90
19868;DHT22;10096;51.112;6.776;2022-12-17T01:42:02;0.70;99.90
19868;DHT22;10096;51.112;6.776;2022-12-17T01:44:51;0.70;99.90
19868;DHT22;10096;51.112;6.776;2022-12-17T01:47:38;0.80;99.90
19868;DHT22;10096;51.112;6.776;2022-12-17T01:50:27;0.80;99.90
19868;DHT22;10096;51.112;6.776;2022-12-17T01:53:13;0.90;99.90
19868;DHT22;10096;51.112;6.776;2022-12-17T01:55:58;0.50;99.90
19868;DHT22;10096;51.112;6.776;2022-12-17T01:58:43;0.40;99.90
19868;DHT22;10096;51.112;6.776;2022-12-17T02:01:29;0.50;99.90
19868;DHT22;10096;51.112;6.776;2022-12-17T02:04:13;0.40;99.90
19868;DHT22;10096;51.112;6.776;2022-12-17T02:07:08;0.40;99.90
19868;DHT22;10096;51.112;6.776;2022-12-17T02:10:00;0.40;99.90
19868;DHT22;10096;51.112;6.776;2022-12-17T02:12:47;0.60;99.90
19868;DHT22;10096;51.112;6.776;2022-12-17T02:15:49;0.40;99.90
19868;DHT22;10096;51.112;6.776;2022-12-17T02:18:40;0.50;99.90
19868;DHT22;10096;51.112;6.776;2022-12-17T02:21:28;0.60;99.90
19868;DHT22;10096;51.112;6.776;2022-12-17T02:24:18;0.50;99.90
19868;DHT22;10096;51.112;6.776;2022-12-17T02:27:07;0.40;99.90
19868;DHT22;10096;51.112;6.776;2022-12-17T02:29:54;0.40;99.90
19868;DHT22;10096;51.112;6.776;2022-12-17T02:32:41;0.30;99.90
19868;DHT22;10096;51.112;6.776;2022-12-17T02:35:29;0.30;99.90
19868;DHT22;10096;51.112;6.776;2022-12-17T02:38:16;0.30;99.90
19868;DHT22;10096;51.112;6.776;2022-12-17T02:41:02;0.60;99.90
19868;DHT22;10096;51.112;6.776;2022-12-17T02:43:49;0.50;99.90
19868;DHT22;10096;51.112;6.776;2022-12-17T02:46:40;0.40;99.90
19868;DHT22;10096;51.112;6.776;2022-12-17T02:49:24;0.60;99.90
19868;DHT22;10096;51.112;6.776;2022-12-17T02:52:09;0.70;99.90
19868;DHT22;10096;51.112;6.776;2022-12-17T02:54:54;0.60;99.90
19868;DHT22;10096;51.112;6.776;2022-12-17T02:57:38;0.60;99.90
19868;DHT22;10096;51.112;6.776;2022-12-17T03:00:24;0.60;99.90
19868;DHT22;10096;51.112;6.776;2022-12-17T03:03:08;0.60;99.90
19868;DHT22;10096;51.112;6.776;2022-12-17T03:05:53;0.40;99.90
19868;DHT22;10096;51.112;6.776;2022-12-17T03:08:37;0.60;99.90
19868;DHT22;10096;51.112;6.776;2022-12-17T03:11:21;0.40;99.90
19868;DHT22;10096;51.112;6.776;2022-12-17T03:14:05;0.40;99.90
19868;DHT22;10096;51.112;6.776;2022-12-17T03:16:51;0.40;99.90
19868;DHT22;10096;51.112;6.776;2022-12-17T03:19:36;0.40;99.90
19868;DHT22;10096;51.112;6.776;2022-12-17T03:22:34;0.50;99.90
19868;DHT22;10096;51.112;6.776;2022-12-17T03:25:19;0.30;99.90
19868;DHT22;10096;51.112;6.776;2022-12-17T03:28:04;0.50;99.90
19868;DHT22;10096;51.112;6.776;2022-12-17T03:30:48;0.30;99.90
19868;DHT22;10096;51.112;6.776;2022-12-17T03:33:34;0.20;99.90
19868;DHT22;10096;51.112;6.776;2022-12-17T03:36:28;0.30;99.90
19868;DHT22;10096;51.112;6.776;2022-12-17T03:39:12;0.30;99.90
19868;DHT22;10096;51.112;6.776;2022-12-17T03:41:56;0.30;99.90
19868;DHT22;10096;51.112;6.776;2022-12-17T03:44:41;0.30;99.90
19868;DHT22;10096;51.112;6.776;2022-12-17T03:47:25;0.20;99.90
19868;DHT22;10096;51.112;6.776;2022-12-17T03:50:11;0.20;99.90
19868;DHT22;10096;51.112;6.776;2022-12-17T03:52:55;0.20;99.90
19868;DHT22;10096;51.112;6.776;2022-12-17T03:55:39;0.20;99.90
19868;DHT22;10096;51.112;6.776;2022-12-17T03:58:24;0.10;99.90
19868;DHT22;10096;51.112;6.776;2022-12-17T04:01:09;0.20;99.90
19868;DHT22;10096;51.112;6.776;2022-12-17T04:03:53;0.20;99.90
19868;DHT22;10096;51.112;6.776;2022-12-17T04:06:38;0.30;99.90
19868;DHT22;10096;51.112;6.776;2022-12-17T04:09:23;0.20;99.90
19868;DHT22;10096;51.112;6.776;2022-12-17T04:12:07;0.30;99.90
19868;DHT22;10096;51.112;6.776;2022-12-17T04:14:51;0.20;99.90
19868;DHT22;10096;51.112;6.776;2022-12-17T04:17:50;0.20;99.90
19868;DHT22;10096;51.112;6.776;2022-12-17T04:20:34;0.20;99.90
19868;DHT22;10096;51.112;6.776;2022-12-17T04:23:20;0.30;99.90
19868;DHT22;10096;51.112;6.776;2022-12-17T04:26:07;0.00;99.90
19868;DHT22;10096;51.112;6.776;2022-12-17T04:28:52;0.10;99.90
19868;DHT22;10096;51.112;6.776;2022-12-17T04:31:36;0.20;99.90
19868;DHT22;10096;51.112;6.776;2022-12-17T04:34:21;0.10;99.90
19868;DHT22;10096;51.112;6.776;2022-12-17T04:37:05;0.30;99.90
19868;DHT22;10096;51.112;6.776;2022-12-17T04:39:51;-0.10;99.90
19868;DHT22;10096;51.112;6.776;2022-12-17T04:42:50;-0.10;99.90
19868;DHT22;10096;51.112;6.776;2022-12-17T04:45:48;-0.10;99.90
19868;DHT22;10096;51.112;6.776;2022-12-17T04:48:32;-0.10;99.90
19868;DHT22;10096;51.112;6.776;2022-12-17T04:51:17;-0.10;99.90
19868;DHT22;10096;51.112;6.776;2022-12-17T04:54:01;0.10;99.90
19868;DHT22;10096;51.112;6.776;2022-12-17T04:56:47;0.30;99.90
19868;DHT22;10096;51.112;6.776;2022-12-17T04:59:31;0.30;99.90
19868;DHT22;10096;51.112;6.776;2022-12-17T05:02:16;0.10;99.90
19868;DHT22;10096;51.112;6.776;2022-12-17T05:05:00;0.30;99.90
19868;DHT22;10096;51.112;6.776;2022-12-17T05:07:45;0.20;99.90
19868;DHT22;10096;51.112;6.776;2022-12-17T05:10:29;0.40;99.90
19868;DHT22;10096;51.112;6.776;2022-12-17T05:13:15;0.60;88.00
19868;DHT22;10096;51.112;6.776;2022-12-17T05:15:59;0.40;43.80
19868;DHT22;10096;51.112;6.776;2022-12-17T05:18:43;0.40;69.60
19868;DHT22;10096;51.112;6.776;2022-12-17T05:21:28;0.10;99.90
19868;DHT22;10096;51.112;6.776;2022-12-17T05:24:12;0.20;99.90
19868;DHT22;10096;51.112;6.776;2022-12-17T05:26:57;0.20;99.90
19868;DHT22;10096;51.112;6.776;2022-12-17T05:29:42;0.00;99.90
19868;DHT22;10096;51.112;6.776;2022-12-17T05:32:26;0.00;99.90
19868;DHT22;10096;51.112;6.776;2022-12-17T05:35:12;-0.10;99.90
19868;DHT22;10096;51.112;6.776;2022-12-17T05:38:02;-0.10;99.90
19868;DHT22;10096;51.112;6.776;2022-12-17T05:40:59;-0.30;99.90
19868;DHT22;10096;51.112;6.776;2022-12-17T05:43:43;-0.10;99.90
19868;DHT22;10096;51.112;6.776;2022-12-17T05:46:29;-0.10;99.90
19868;DHT22;10096;51.112;6.776;2022-12-17T05:49:13;-0.20;99.90
19868;DHT22;10096;51.112;6.776;2022-12-17T05:51:58;-0.20;99.90
19868;DHT22;10096;51.112;6.776;2022-12-17T05:54:42;-0.30;99.90
19868;DHT22;10096;51.112;6.776;2022-12-17T05:57:28;-0.30;99.90
19868;DHT22;10096;51.112;6.776;2022-12-17T06:00:14;-0.30;99.90
19868;DHT22;10096;51.112;6.776;2022-12-17T06:03:01;-0.30;99.90
19868;DHT22;10096;51.112;6.776;2022-12-17T06:05:47;-0.30;99.90
19868;DHT22;10096;51.112;6.776;2022-12-17T06:08:31;-0.30;99.90
19868;DHT22;10096;51.112;6.776;2022-12-17T06:11:15;-0.30;99.90
19868;DHT22;10096;51.112;6.776;2022-12-17T06:13:59;-0.30;99.90
19868;DHT22;10096;51.112;6.776;2022-12-17T06:16:46;-0.40;99.90
19868;DHT22;10096;51.112;6.776;2022-12-17T06:19:32;-0.50;99.90
19868;DHT22;10096;51.112;6.776;2022-12-17T06:22:16;-0.60;99.90
19868;DHT22;10096;51.112;6.776;2022-12-17T06:25:01;-0.50;99.90
19868;DHT22;10096;51.112;6.776;2022-12-17T06:27:45;-0.70;99.90
19868;DHT22;10096;51.112;6.776;2022-12-17T06:30:30;-0.70;99.90
19868;DHT22;10096;51.112;6.776;2022-12-17T06:33:14;-0.60;99.90
19868;DHT22;10096;51.112;6.776;2022-12-17T06:36:00;-0.60;99.90
19868;DHT22;10096;51.112;6.776;2022-12-17T06:38:44;-0.60;99.90
19868;DHT22;10096;51.112;6.776;2022-12-17T06:41:29;-0.60;99.90
19868;DHT22;10096;51.112;6.776;2022-12-17T06:44:13;-0.90;99.90
19868;DHT22;10096;51.112;6.776;2022-12-17T06:46:58;-0.90;99.90
19868;DHT22;10096;51.112;6.776;2022-12-17T06:49:42;-0.80;99.90
19868;DHT22;10096;51.112;6.776;2022-12-17T06:52:28;-1.00;99.90
19868;DHT22;10096;51.112;6.776;2022-12-17T06:55:12;-1.10;1.00
19868;DHT22;10096;51.112;6.776;2022-12-17T06:57:58;-1.10;1.00
19868;DHT22;10096;51.112;6.776;2022-12-17T07:00:42;-1.10;1.00
19868;DHT22;10096;51.112;6.776;2022-12-17T07:03:27;-0.90;1.00
19868;DHT22;10096;51.112;6.776;2022-12-17T07:06:11;-1.00;1.00
19868;DHT22;10096;51.112;6.776;2022-12-17T07:08:57;-1.20;1.00
19868;DHT22;10096;51.112;6.776;2022-12-17T07:11:41;-1.20;1.00
19868;DHT22;10096;51.112;6.776;2022-12-17T07:14:26;-1.30;1.00
19868;DHT22;10096;51.112;6.776;2022-12-17T07:17:10;-1.20;1.00
19868;DHT22;10096;51.112;6.776;2022-12-17T07:19:55;-1.20;1.00
19868;DHT22;10096;51.112;6.776;2022-12-17T07:22:39;-1.10;1.00
19868;DHT22;10096;51.112;6.776;2022-12-17T07:25:25;-1.30;1.00
19868;DHT22;10096;51.112;6.776;2022-12-17T07:28:10;-1.20;1.00
19868;DHT22;10096;51.112;6.776;2022-12-17T07:30:55;-1.30;1.00
19868;DHT22;10096;51.112;6.776;2022-12-17T07:33:39;-1.40;1.00
19868;DHT22;10096;51.112;6.776;2022-12-17T07:36:23;-1.40;1.00
19868;DHT22;10096;51.112;6.776;2022-12-17T07:39:07;-1.30;1.00
19868;DHT22;10096;51.112;6.776;2022-12-17T07:41:54;-1.10;16.80
19868;DHT22;10096;51.112;6.776;2022-12-17T07:44:38;-1.30;1.00
19868;DHT22;10096;51.112;6.776;2022-12-17T07:47:22;-1.40;1.00
19868;DHT22;10096;51.112;6.776;2022-12-17T07:50:07;-1.50;1.00
19868;DHT22;10096;51.112;6.776;2022-12-17T07:52:58;-1.50;1.00
19868;DHT22;10096;51.112;6.776;2022-12-17T07:55:43;-1.50;1.00
19868;DHT22;10096;51.112;6.776;2022-12-17T07:58:28;-1.70;99.90
19868;DHT22;10096;51.112;6.776;2022-12-17T08:01:13;-1.70;43.40
19868;DHT22;10096;51.112;6.776;2022-12-17T08:04:01;-1.70;1.00
19868;DHT22;10096;51.112;6.776;2022-12-17T08:06:45;-1.70;1.00
19868;DHT22;10096;51.112;6.776;2022-12-17T08:09:29;-1.80;1.00
19868;DHT22;10096;51.112;6.776;2022-12-17T08:12:13;-1.90;1.00
19868;DHT22;10096;51.112;6.776;2022-12-17T08:14:56;-2.10;1.00
19868;DHT22;10096;51.112;6.776;2022-12-17T08:17:40;-2.00;1.00
19868;DHT22;10096;51.112;6.776;2022-12-17T08:20:25;-2.10;74.80
19868;DHT22;10096;51.112;6.776;2022-12-17T08:23:09;-2.10;99.90
19868;DHT22;10096;51.112;6.776;2022-12-17T08:25:54;-2.20;1.00
19868;DHT22;10096;51.112;6.776;2022-12-17T08:28:38;-2.30;80.90
19868;DHT22;10096;51.112;6.776;2022-12-17T08:31:24;-2.30;99.90
19868;DHT22;10096;51.112;6.776;2022-12-17T08:34:09;-2.30;99.90
19868;DHT22;10096;51.112;6.776;2022-12-17T08:36:54;-2.30;99.90
19868;DHT22;10096;51.112;6.776;2022-12-17T08:39:38;-2.30;99.90
19868;DHT22;10096;51.112;6.776;2022-12-17T08:42:23;-2.30;99.90
19868;DHT22;10096;51.112;6.776;2022-12-17T08:45:08;-2.30;99.90
19868;DHT22;10096;51.112;6.776;2022-12-17T08:48:01;-2.40;99.90
19868;DHT22;10096;51.112;6.776;2022-12-17T08:50:47;-2.10;99.90
19868;DHT22;10096;51.112;6.776;2022-12-17T08:53:31;-2.40;99.90
19868;DHT22;10096;51.112;6.776;2022-12-17T08:56:15;-2.10;99.90
19868;DHT22;10096;51.112;6.776;2022-12-17T08:59:05;-2.40;99.90
19868;DHT22;10096;51.112;6.776;2022-12-17T09:01:50;-2.40;99.90
19868;DHT22;10096;51.112;6.776;2022-12-17T09:04:37;-2.50;99.90
19868;DHT22;10096;51.112;6.776;2022-12-17T09:07:21;-2.40;99.90
19868;DHT22;10096;51.112;6.776;2022-12-17T09:10:07;-2.40;80.10
19868;DHT22;10096;51.112;6.776;2022-12-17T09:13:00;-2.30;1.00
19868;DHT22;10096;51.112;6.776;2022-12-17T09:15:50;-2.70;1.00
19868;DHT22;10096;51.112;6.776;2022-12-17T09:18:35;-2.40;99.90
19868;DHT22;10096;51.112;6.776;2022-12-17T09:21:20;-2.30;99.90
19868;DHT22;10096;51.112;6.776;2022-12-17T09:24:05;-2.30;99.90
19868;DHT22;10096;51.112;6.776;2022-12-17T09:26:49;-2.30;99.90
19868;DHT22;10096;51.112;6.776;2022-12-17T09:29:34;-2.30;99.90
19868;DHT22;10096;51.112;6.776;2022-12-17T09:32:18;-2.20;99.90
19868;DHT22;10096;51.112;6.776;2022-12-17T09:35:03;-2.10;99.90
19868;DHT22;10096;51.112;6.776;2022-12-17T09:37:55;-2.20;99.90
19868;DHT22;10096;51.112;6.776;2022-12-17T09:40:40;-2.00;99.90
19868;DHT22;10096;51.112;6.776;2022-12-17T09:43:31;-2.20;99.90
19868;DHT22;10096;51.112;6.776;2022-12-17T09:46:24;-2.30;99.90
19868;DHT22;10096;51.112;6.776;2022-12-17T09:49:15;-2.10;99.90
19868;DHT22;10096;51.112;6.776;2022-12-17T09:52:18;-2.10;99.90
19868;DHT22;10096;51.112;6.776;2022-12-17T09:55:16;-2.00;99.90
19868;DHT22;10096;51.112;6.776;2022-12-17T09:58:02;-2.10;88.50
19868;DHT22;10096;51.112;6.776;2022-12-17T10:00:46;-2.10;95.90
19868;DHT22;10096;51.112;6.776;2022-12-17T10:03:33;-2.00;99.90
19868;DHT22;10096;51.112;6.776;2022-12-17T10:06:21;-1.80;55.40
19868;DHT22;10096;51.112;6.776;2022-12-17T10:09:10;-1.90;54.50
19868;DHT22;10096;51.112;6.776;2022-12-17T10:12:14;-1.80;32.80
19868;DHT22;10096;51.112;6.776;2022-12-17T10:14:58;-1.90;36.60
19868;DHT22;10096;51.112;6.776;2022-12-17T10:17:43;-1.80;64.40
19868;DHT22;10096;51.112;6.776;2022-12-17T10:20:46;-1.40;35.10
19868;DHT22;10096;51.112;6.776;2022-12-17T10:23:33;-1.30;11.90
19868;DHT22;10096;51.112;6.776;2022-12-17T10:26:19;-1.40;1.00
19868;DHT22;10096;51.112;6.776;2022-12-17T10:29:10;-1.30;1.00
19868;DHT22;10096;51.112;6.776;2022-12-17T10:31:58;-1.40;1.00
19868;DHT22;10096;51.112;6.776;2022-12-17T10:34:44;-1.40;1.00
19868;DHT22;10096;51.112;6.776;2022-12-17T10:37:30;-1.60;1.00
19868;DHT22;10096;51.112;6.776;2022-12-17T10:40:23;-1.60;1.00
19868;DHT22;10096;51.112;6.776;2022-12-17T10:43:26;-1.50;1.00
19868;DHT22;10096;51.112;6.776;2022-12-17T10:46:25;-1.40;1.00
19868;DHT22;10096;51.112;6.776;2022-12-17T10:49:11;-1.50;1.00
19868;DHT22;10096;51.112;6.776;2022-12-17T10:52:01;-1.50;1.00
19868;DHT22;10096;51.112;6.776;2022-12-17T10:54:59;-1.50;1.00
19868;DHT22;10096;51.112;6.776;2022-12-17T10:57:44;-1.20;1.00
19868;DHT22;10096;51.112;6.776;2022-12-17T11:00:31;-1.30;1.00
19868;DHT22;10096;51.112;6.776;2022-12-17T11:03:38;-1.30;1.00
19868;DHT22;10096;51.112;6.776;2022-12-17T11:06:33;-1.10;1.00
19868;DHT22;10096;51.112;6.776;2022-12-17T11:09:33;-1.40;1.00
19868;DHT22;10096;51.112;6.776;2022-12-17T11:12:23;-1.30;17.30
19868;DHT22;10096;51.112;6.776;2022-12-17T11:15:17;-1.50;46.30
19868;DHT22;10096;51.112;6.776;2022-12-17T11:18:04;-1.40;56.50
19868;DHT22;10096;51.112;6.776;2022-12-17T11:20:56;-1.40;50.90
19868;DHT22;10096;51.112;6.776;2022-12-17T11:23:44;-1.40;41.10
19868;DHT22;10096;51.112;6.776;2022-12-17T11:26:32;-1.20;5.20
19868;DHT22;10096;51.112;6.776;2022-12-17T11:29:19;-1.00;1.00
19868;DHT22;10096;51.112;6.776;2022-12-17T11:35:27;-0.90;1.00
19868;DHT22;10096;51.112;6.776;2022-12-17T11:38:21;-0.90;1.00
19868;DHT22;10096;51.112;6.776;2022-12-17T11:41:13;-0.70;1.00
19868;DHT22;10096;51.112;6.776;2022-12-17T11:44:04;-0.90;1.00
19868;DHT22;10096;51.112;6.776;2022-12-17T11:46:58;-1.20;1.00
19868;DHT22;10096;51.112;6.776;2022-12-17T11:49:53;-1.30;1.00
19868;DHT22;10096;51.112;6.776;2022-12-17T11:52:46;-1.10;1.00
19868;DHT22;10096;51.112;6.776;2022-12-17T11:55:39;-1.40;1.00
19868;DHT22;10096;51.112;6.776;2022-12-17T11:58:31;-1.40;1.00
19868;DHT22;10096;51.112;6.776;2022-12-17T12:01:22;-1.30;1.00
19868;DHT22;10096;51.112;6.776;2022-12-17T12:04:19;-1.20;1.00
19868;DHT22;10096;51.112;6.776;2022-12-17T12:07:11;-1.30;1.00
19868;DHT22;10096;51.112;6.776;2022-12-17T12:10:03;-1.40;1.00
19868;DHT22;10096;51.112;6.776;2022-12-17T12:12:58;-1.30;1.00
19868;DHT22;10096;51.112;6.776;2022-12-17T12:15:56;-1.20;1.00
19868;DHT22;10096;51.112;6.776;2022-12-17T12:18:50;-0.90;1.00
19868;DHT22;10096;51.112;6.776;2022-12-17T12:21:39;-1.30;1.00
19868;DHT22;10096;51.112;6.776;2022-12-17T12:24:35;-1.20;1.00
19868;DHT22;10096;51.112;6.776;2022-12-17T12:27:29;-1.10;1.00
19868;DHT22;10096;51.112;6.776;2022-12-17T12:30:20;-0.90;1.00
19868;DHT22;10096;51.112;6.776;2022-12-17T12:33:17;-0.80;1.00
19868;DHT22;10096;51.112;6.776;2022-12-17T12:36:03;-0.80;1.00
19868;DHT22;10096;51.112;6.776;2022-12-17T12:38:52;-0.80;1.00
19868;DHT22;10096;51.112;6.776;2022-12-17T12:41:43;-1.00;1.00
19868;DHT22;10096;51.112;6.776;2022-12-17T12:44:33;-1.10;1.00
19868;DHT22;10096;51.112;6.776;2022-12-17T12:47:27;-0.90;1.00
19868;DHT22;10096;51.112;6.776;2022-12-17T12:50:19;-0.80;1.00
19868;DHT22;10096;51.112;6.776;2022-12-17T12:53:06;-0.80;1.00
19868;DHT22;10096;51.112;6.776;2022-12-17T12:55:52;-0.90;1.00
19868;DHT22;10096;51.112;6.776;2022-12-17T12:58:39;-1.00;1.00
19868;DHT22;10096;51.112;6.776;2022-12-17T13:01:32;-0.90;1.00
19868;DHT22;10096;51.112;6.776;2022-12-17T13:04:30;-0.90;1.00
19868;DHT22;10096;51.112;6.776;2022-12-17T13:07:23;-1.00;1.00
19868;DHT22;10096;51.112;6.776;2022-12-17T13:09:52;-0.90;1.00
19868;DHT22;10096;51.112;6.776;2022-12-17T13:12:34;-0.90;1.00
19868;DHT22;10096;51.112;6.776;2022-12-17T13:15:18;-0.90;1.00
19868;DHT22;10096;51.112;6.776;2022-12-17T13:17:57;-0.90;1.00
19868;DHT22;10096;51.112;6.776;2022-12-17T13:20:29;-1.00;1.00
19868;DHT22;10096;51.112;6.776;2022-12-17T13:23:29;-0.80;1.00
19868;DHT22;10096;51.112;6.776;2022-12-17T13:26:14;-0.90;1.00
19868;DHT22;10096;51.112;6.776;2022-12-17T13:28:43;-0.90;1.00
19868;DHT22;10096;51.112;6.776;2022-12-17T13:31:16;-1.00;1.00
19868;DHT22;10096;51.112;6.776;2022-12-17T13:33:50;-1.00;1.00
19868;DHT22;10096;51.112;6.776;2022-12-17T13:36:26;-1.10;1.00
19868;DHT22;10096;51.112;6.776;2022-12-17T13:39:02;-0.80;1.00
19868;DHT22;10096;51.112;6.776;2022-12-17T13:41:32;-1.20;1.00
19868;DHT22;10096;51.112;6.776;2022-12-17T13:44:01;-1.30;1.00
19868;DHT22;10096;51.112;6.776;2022-12-17T13:46:40;-1.20;1.00
19868;DHT22;10096;51.112;6.776;2022-12-17T13:49:16;-1.40;1.00
19868;DHT22;10096;51.112;6.776;2022-12-17T13:51:45;-1.10;1.00
19868;DHT22;10096;51.112;6.776;2022-12-17T13:54:15;-1.30;1.00
19868;DHT22;10096;51.112;6.776;2022-12-17T13:56:43;-1.20;1.00
19868;DHT22;10096;51.112;6.776;2022-12-17T13:59:17;-1.50;1.00
19868;DHT22;10096;51.112;6.776;2022-12-17T14:01:46;-1.30;1.00
19868;DHT22;10096;51.112;6.776;2022-12-17T14:04:21;-1.50;1.00
19868;DHT22;10096;51.112;6.776;2022-12-17T14:06:52;-1.50;1.00
19868;DHT22;10096;51.112;6.776;2022-12-17T14:09:21;-1.20;1.00
19868;DHT22;10096;51.112;6.776;2022-12-17T14:11:50;-1.50;1.00
19868;DHT22;10096;51.112;6.776;2022-12-17T14:14:36;-1.20;1.00
19868;DHT22;10096;51.112;6.776;2022-12-17T14:17:03;-1.30;1.00
19868;DHT22;10096;51.112;6.776;2022-12-17T14:19:31;-1.10;1.00
19868;DHT22;10096;51.112;6.776;2022-12-17T14:22:00;-1.30;1.00
19868;DHT22;10096;51.112;6.776;2022-12-17T14:24:28;-1.20;1.00
19868;DHT22;10096;51.112;6.776;2022-12-17T14:26:57;-1.10;1.00
19868;DHT22;10096;51.112;6.776;2022-12-17T14:29:26;-1.20;1.00
19868;DHT22;10096;51.112;6.776;2022-12-17T14:31:55;-1.30;1.00
19868;DHT22;10096;51.112;6.776;2022-12-17T14:34:22;-1.30;1.00
19868;DHT22;10096;51.112;6.776;2022-12-17T14:36:54;-1.20;1.00
19868;DHT22;10096;51.112;6.776;2022-12-17T14:39:26;-1.30;1.00
19868;DHT22;10096;51.112;6.776;2022-12-17T14:41:55;-1.30;1.00
19868;DHT22;10096;51.112;6.776;2022-12-17T14:44:48;-1.40;1.00
19868;DHT22;10096;51.112;6.776;2022-12-17T14:47:18;-1.40;1.00
19868;DHT22;10096;51.112;6.776;2022-12-17T14:49:55;-1.40;1.00
19868;DHT22;10096;51.112;6.776;2022-12-17T14:52:34;-1.50;1.00
19868;DHT22;10096;51.112;6.776;2022-12-17T14:55:37;-1.30;1.00
19868;DHT22;10096;51.112;6.776;2022-12-17T14:58:17;-1.40;1.00
19868;DHT22;10096;51.112;6.776;2022-12-17T15:00:47;-1.40;1.00
19868;DHT22;10096;51.112;6.776;2022-12-17T15:03:19;-1.30;1.00
19868;DHT22;10096;51.112;6.776;2022-12-17T15:05:50;-1.50;1.00
19868;DHT22;10096;51.112;6.776;2022-12-17T15:08:18;-1.40;1.00
19868;DHT22;10096;51.112;6.776;2022-12-17T15:10:47;-1.60;1.00
19868;DHT22;10096;51.112;6.776;2022-12-17T15:13:14;-1.60;1.00
19868;DHT22;10096;51.112;6.776;2022-12-17T15:15:43;-2.00;1.00
19868;DHT22;10096;51.112;6.776;2022-12-17T15:18:10;-1.50;1.00
19868;DHT22;10096;51.112;6.776;2022-12-17T15:20:38;-1.60;1.00
19868;DHT22;10096;51.112;6.776;2022-12-17T15:23:07;-1.50;1.00
19868;DHT22;10096;51.112;6.776;2022-12-17T15:25:35;-1.70;1.00
19868;DHT22;10096;51.112;6.776;2022-12-17T15:28:04;-1.50;1.00
19868;DHT22;10096;51.112;6.776;2022-12-17T15:30:31;-1.60;1.00
19868;DHT22;10096;51.112;6.776;2022-12-17T15:32:58;-1.60;1.00
19868;DHT22;10096;51.112;6.776;2022-12-17T15:35:25;-1.90;1.00
19868;DHT22;10096;51.112;6.776;2022-12-17T15:37:52;-1.60;1.00
19868;DHT22;10096;51.112;6.776;2022-12-17T15:40:19;-1.70;1.00
19868;DHT22;10096;51.112;6.776;2022-12-17T15:42:46;-1.80;1.00
19868;DHT22;10096;51.112;6.776;2022-12-17T15:45:35;-2.10;1.00
19868;DHT22;10096;51.112;6.776;2022-12-17T15:48:03;-2.00;11.60
19868;DHT22;10096;51.112;6.776;2022-12-17T15:50:30;-1.90;1.10
19868;DHT22;10096;51.112;6.776;2022-12-17T15:52:57;-1.90;1.00
19868;DHT22;10096;51.112;6.776;2022-12-17T15:55:24;-1.90;1.00
19868;DHT22;10096;51.112;6.776;2022-12-17T15:57:54;-2.10;1.00
19868;DHT22;10096;51.112;6.776;2022-12-17T16:00:21;-2.10;1.00
19868;DHT22;10096;51.112;6.776;2022-12-17T16:02:51;-2.20;1.00
19868;DHT22;10096;51.112;6.776;2022-12-17T16:05:18;-2.20;25.20
19868;DHT22;10096;51.112;6.776;2022-12-17T16:07:45;-2.00;26.00
19868;DHT22;10096;51.112;6.776;2022-12-17T16:10:13;-2.00;46.70
19868;DHT22;10096;51.112;6.776;2022-12-17T16:12:41;-2.20;1.00
19868;DHT22;10096;51.112;6.776;2022-12-17T16:15:10;-2.30;1.00
19868;DHT22;10096;51.112;6.776;2022-12-17T16:17:37;-2.40;1.00
19868;DHT22;10096;51.112;6.776;2022-12-17T16:20:08;-2.30;1.00
19868;DHT22;10096;51.112;6.776;2022-12-17T16:22:35;-2.40;15.90
19868;DHT22;10096;51.112;6.776;2022-12-17T16:25:03;-2.50;15.50
19868;DHT22;10096;51.112;6.776;2022-12-17T16:27:30;-2.40;9.50
19868;DHT22;10096;51.112;6.776;2022-12-17T16:29:57;-2.30;10.30
19868;DHT22;10096;51.112;6.776;2022-12-17T16:32:24;-2.40;9.70
19868;DHT22;10096;51.112;6.776;2022-12-17T16:34:51;-2.40;8.60
19868;DHT22;10096;51.112;6.776;2022-12-17T16:37:20;-2.50;12.60
19868;DHT22;10096;51.112;6.776;2022-12-17T16:39:47;-2.40;7.50
19868;DHT22;10096;51.112;6.776;2022-12-17T16:42:15;-2.40;3.60
19868;DHT22;10096;51.112;6.776;2022-12-17T16:44:42;-2.30;1.00
19868;DHT22;10096;51.112;6.776;2022-12-17T16:47:09;-2.60;1.00
19868;DHT22;10096;51.112;6.776;2022-12-17T16:49:36;-2.60;1.00
19868;DHT22;10096;51.112;6.776;2022-12-17T16:52:04;-2.60;1.00
19868;DHT22;10096;51.112;6.776;2022-12-17T16:54:35;-2.60;1.00
19868;DHT22;10096;51.112;6.776;2022-12-17T16:57:02;-2.30;19.90
19868;DHT22;10096;51.112;6.776;2022-12-17T16:59:29;-2.60;1.00
19868;DHT22;10096;51.112;6.776;2022-12-17T17:01:56;-2.50;10.00
19868;DHT22;10096;51.112;6.776;2022-12-17T17:04:24;-2.50;20.30
19868;DHT22;10096;51.112;6.776;2022-12-17T17:06:53;-2.70;36.10
19868;DHT22;10096;51.112;6.776;2022-12-17T17:09:22;-2.70;57.30
19868;DHT22;10096;51.112;6.776;2022-12-17T17:11:53;-2.70;98.00
19868;DHT22;10096;51.112;6.776;2022-12-17T17:14:21;-2.60;99.90
19868;DHT22;10096;51.112;6.776;2022-12-17T17:16:48;-2.60;99.90
19868;DHT22;10096;51.112;6.776;2022-12-17T17:19:15;-2.50;99.90
19868;DHT22;10096;51.112;6.776;2022-12-17T17:21:48;-2.40;99.90
19868;DHT22;10096;51.112;6.776;2022-12-17T17:24:18;-2.20;99.90
19868;DHT22;10096;51.112;6.776;2022-12-17T17:26:48;-2.50;99.90